Time;durP1;ratioP1;P1;durP2;ratioP2;P2;SDS_P1;SDS_P2;PMS_P1;PMS_P2;Temp;Humidity;BMP_temperature;BMP_pressure;BME280_temperature;BME280_humidity;BME280_pressure;Samples;Min_cycle;Max_cycle;Signal;HPM_P1;HPM_P2
2022/10/01 00:01:06;;;;;;;3.70;2.30;;;;;;;10.11;75.73;100081.40;108231;1272;74646;-78
2022/10/01 00:03:34;;;;;;;4.20;2.50;;;;;;;10.07;76.01;100076.79;108299;1274;72603;-79
2022/10/01 00:06:12;;;;;;;5.70;2.50;;;;;;;10.05;76.03;100069.27;108123;1274;74365;-79
2022/10/01 00:08:40;;;;;;;4.40;2.20;;;;;;;10.09;75.96;100067.52;108287;1273;62006;-79
2022/10/01 00:11:13;;;;;;;3.70;2.10;;;;;;;10.15;76.17;100064.04;107989;1276;61291;-79
2022/10/01 00:13:41;;;;;;;3.70;2.20;;;;;;;10.23;75.54;100057.30;108135;1274;74433;-79
2022/10/01 00:16:12;;;;;;;3.70;2.10;;;;;;;10.29;75.42;100051.11;108077;1274;71858;-81
2022/10/01 00:18:41;;;;;;;3.80;2.10;;;;;;;10.33;75.48;100044.11;107613;1274;72963;-78
2022/10/01 00:21:13;;;;;;;3.30;2.00;;;;;;;10.35;75.29;100043.27;107976;1274;61555;-79
2022/10/01 00:23:41;;;;;;;4.60;2.20;;;;;;;10.38;75.11;100033.88;107855;1274;61627;-79
2022/10/01 00:26:21;;;;;;;4.40;2.10;;;;;;;10.40;75.11;100034.50;107997;1274;74643;-78
2022/10/01 00:28:53;;;;;;;4.80;2.10;;;;;;;10.44;74.99;100033.60;107961;1274;73676;-77
2022/10/01 00:31:20;;;;;;;5.40;2.50;;;;;;;10.44;75.11;100029.36;107380;1274;71548;-78
2022/10/01 00:33:47;;;;;;;3.80;2.30;;;;;;;10.42;75.13;100025.98;108064;1274;65816;-79
2022/10/01 00:36:14;;;;;;;4.00;2.40;;;;;;;10.40;75.15;100027.98;107789;1274;61412;-79
2022/10/01 00:38:41;;;;;;;4.00;2.60;;;;;;;10.39;75.25;100024.46;107850;1273;75926;-79
2022/10/01 00:41:08;;;;;;;4.00;2.30;;;;;;;10.38;75.20;100024.73;107693;1274;71360;-79
2022/10/01 00:43:38;;;;;;;4.90;2.70;;;;;;;10.36;75.34;100019.29;108014;1274;73539;-78
2022/10/01 00:46:12;;;;;;;3.50;2.40;;;;;;;10.34;75.58;100017.58;108169;1274;62035;-78
2022/10/01 00:48:49;;;;;;;6.00;2.40;;;;;;;10.33;75.74;100016.00;107959;1272;61978;-77
2022/10/01 00:51:17;;;;;;;4.80;2.60;;;;;;;10.31;75.96;100015.21;108005;1274;75701;-78
2022/10/01 00:53:44;;;;;;;4.30;2.80;;;;;;;10.29;76.10;100011.71;107443;1277;72193;-79
2022/10/01 00:56:12;;;;;;;6.40;2.10;;;;;;;10.27;76.21;100004.56;108001;1274;72675;-79
2022/10/01 00:58:39;;;;;;;3.70;2.40;;;;;;;10.25;76.42;100004.89;107840;1274;61546;-78
2022/10/01 01:01:05;;;;;;;4.60;2.40;;;;;;;10.26;76.37;100000.04;107780;1274;62004;-77
2022/10/01 01:03:33;;;;;;;6.00;2.50;;;;;;;10.26;76.34;99999.75;108002;1273;75059;-79
2022/10/01 01:06:00;;;;;;;4.80;2.80;;;;;;;10.25;76.53;99995.42;108195;1273;72498;-78
2022/10/01 01:08:28;;;;;;;4.60;2.60;;;;;;;10.23;76.46;99993.86;107858;1274;74047;-80
2022/10/01 01:11:14;;;;;;;6.80;3.20;;;;;;;10.20;76.61;99996.80;107771;1274;63371;-78
2022/10/01 01:13:49;;;;;;;4.20;2.30;;;;;;;10.17;76.65;99995.96;108060;1274;59255;-78
2022/10/01 01:16:26;;;;;;;4.80;2.50;;;;;;;10.15;76.49;99992.73;107899;1271;75487;-78
2022/10/01 01:19:27;;;;;;;3.50;2.30;;;;;;;10.12;76.73;99987.60;107910;1274;71357;-79
2022/10/01 01:21:59;;;;;;;4.40;2.40;;;;;;;10.10;76.82;99982.93;107776;1274;72827;-78
2022/10/01 01:24:57;;;;;;;3.80;2.50;;;;;;;10.08;76.67;99976.63;107888;1274;63635;-78
2022/10/01 01:27:56;;;;;;;4.90;2.50;;;;;;;10.07;76.78;99973.07;107628;1274;61208;-78
2022/10/01 01:30:23;;;;;;;4.10;2.30;;;;;;;10.05;77.04;99966.81;107688;1272;76371;-79
2022/10/01 01:32:58;;;;;;;5.20;2.50;;;;;;;10.04;76.80;99961.75;107877;1274;71669;-78
2022/10/01 01:35:39;;;;;;;3.80;2.40;;;;;;;10.05;76.84;99955.45;107663;1274;72732;-79
2022/10/01 01:38:13;;;;;;;4.60;2.60;;;;;;;10.06;76.76;99951.01;107767;1274;63050;-78
2022/10/01 01:40:43;;;;;;;4.20;2.60;;;;;;;10.07;76.77;99954.48;107633;1273;59403;-78
2022/10/01 01:43:17;;;;;;;5.30;2.50;;;;;;;10.07;76.79;99950.94;107530;1274;74796;-78
2022/10/01 01:45:45;;;;;;;4.20;2.30;;;;;;;10.10;76.77;99943.67;107543;1272;72236;-78
2022/10/01 01:48:13;;;;;;;3.90;2.60;;;;;;;10.12;76.70;99938.51;107757;1274;72376;-78
2022/10/01 01:50:50;;;;;;;4.50;2.40;;;;;;;10.15;76.52;99940.95;107994;1274;62331;-78
2022/10/01 01:53:19;;;;;;;3.70;2.40;;;;;;;10.17;76.48;99933.38;107677;1273;61900;-78
2022/10/01 01:55:49;;;;;;;4.20;2.50;;;;;;;10.20;76.38;99924.39;107910;1273;74609;-78
2022/10/01 01:58:17;;;;;;;3.00;2.20;;;;;;;10.23;76.27;99919.88;107432;1273;72369;-79
2022/10/01 02:00:51;;;;;;;4.70;2.20;;;;;;;10.24;76.30;99917.81;108031;1274;72746;-78
2022/10/01 02:03:21;;;;;;;5.30;2.10;;;;;;;10.27;76.06;99913.75;107982;1274;63275;-78
2022/10/01 02:06:20;;;;;;;4.10;2.40;;;;;;;10.29;76.00;99911.01;107659;1274;60389;-78
2022/10/01 02:09:01;;;;;;;5.40;2.40;;;;;;;10.30;75.97;99906.93;107838;1274;74940;-77
2022/10/01 02:11:32;;;;;;;3.50;2.40;;;;;;;10.33;75.75;99906.83;108105;1274;70221;-77
2022/10/01 02:14:22;;;;;;;3.00;2.20;;;;;;;10.35;75.63;99903.20;107734;1274;74207;-77
2022/10/01 02:17:28;;;;;;;4.60;2.10;;;;;;;10.37;75.50;99903.83;107824;1274;61361;-78
2022/10/01 02:20:05;;;;;;;4.70;2.20;;;;;;;10.42;75.33;99900.56;107970;1273;61759;-78
2022/10/01 02:22:43;;;;;;;4.10;2.30;;;;;;;10.45;75.18;99898.27;108090;1274;76276;-78
2022/10/01 02:25:13;;;;;;;3.30;2.10;;;;;;;10.49;75.00;99896.54;107844;1274;72151;-79
2022/10/01 02:27:47;;;;;;;4.10;2.40;;;;;;;10.51;74.93;99893.13;107802;1274;71764;-78
2022/10/01 02:30:14;;;;;;;3.70;1.80;;;;;;;10.55;74.65;99893.15;108167;1274;62446;-79
2022/10/01 02:32:45;;;;;;;4.30;2.20;;;;;;;10.57;74.31;99890.84;108013;1274;60332;-78
2022/10/01 02:35:15;;;;;;;4.20;2.30;;;;;;;10.61;74.22;99881.96;107590;1274;76216;-78
2022/10/01 02:37:45;;;;;;;3.80;2.10;;;;;;;10.65;73.88;99880.96;107727;1274;70633;-78
2022/10/01 02:40:16;;;;;;;3.70;1.80;;;;;;;10.69;73.74;99876.61;107990;1274;73165;-78
2022/10/01 02:42:49;;;;;;;3.50;2.00;;;;;;;10.73;73.32;99869.73;107675;1273;62062;-78
2022/10/01 02:45:21;;;;;;;3.20;1.70;;;;;;;10.77;73.24;99870.41;107688;1274;62083;-78
2022/10/01 02:47:53;;;;;;;4.10;2.00;;;;;;;10.82;73.05;99867.83;108134;1274;75574;-77
2022/10/01 02:50:22;;;;;;;3.80;1.80;;;;;;;10.87;72.84;99865.00;107772;1274;71412;-79
2022/10/01 02:53:19;;;;;;;3.50;1.80;;;;;;;10.90;72.49;99863.46;108005;1274;72672;-77
2022/10/01 02:55:49;;;;;;;3.20;1.80;;;;;;;10.93;72.46;99857.55;107865;1276;62154;-78
2022/10/01 02:58:17;;;;;;;3.00;1.90;;;;;;;10.96;72.37;99849.89;107986;1273;62665;-78
2022/10/01 03:00:44;;;;;;;3.40;1.90;;;;;;;10.98;72.27;99846.80;108085;1274;76222;-77
2022/10/01 03:03:11;;;;;;;3.70;1.90;;;;;;;10.98;72.24;99835.86;107877;1274;69212;-80
2022/10/01 03:05:38;;;;;;;2.60;1.80;;;;;;;11.00;72.24;99833.54;108112;1274;74572;-76
2022/10/01 03:08:04;;;;;;;3.30;1.80;;;;;;;10.99;72.08;99830.38;107847;1274;60920;-77
2022/10/01 03:10:32;;;;;;;4.20;1.90;;;;;;;11.00;71.90;99827.13;108034;1274;60675;-78
2022/10/01 03:13:00;;;;;;;3.10;1.80;;;;;;;11.01;71.66;99819.70;107454;1274;75219;-76
2022/10/01 03:15:27;;;;;;;5.10;1.90;;;;;;;11.04;71.68;99815.21;107990;1274;72069;-78
2022/10/01 03:17:54;;;;;;;3.20;1.70;;;;;;;11.05;71.69;99811.25;107881;1274;72621;-78
2022/10/01 03:20:21;;;;;;;4.90;1.90;;;;;;;11.07;71.46;99806.28;107693;1274;62704;-77
2022/10/01 03:22:48;;;;;;;2.60;1.60;;;;;;;11.08;71.41;99799.73;107828;1273;60568;-78
2022/10/01 03:25:16;;;;;;;2.50;1.50;;;;;;;11.10;71.20;99798.41;107814;1273;74929;-78
2022/10/01 03:27:43;;;;;;;4.60;1.80;;;;;;;11.14;71.11;99794.80;108023;1274;72523;-78
2022/10/01 03:30:10;;;;;;;3.10;1.70;;;;;;;11.16;70.81;99796.02;108058;1272;74457;-77
2022/10/01 03:32:37;;;;;;;2.90;1.60;;;;;;;11.20;70.81;99795.37;107426;1274;62174;-77
2022/10/01 03:35:04;;;;;;;2.60;1.70;;;;;;;11.24;70.60;99792.93;107785;1274;62041;-77
2022/10/01 03:37:31;;;;;;;3.90;1.80;;;;;;;11.26;70.47;99788.15;107628;1274;76146;-77
2022/10/01 03:39:58;;;;;;;3.60;1.90;;;;;;;11.29;70.25;99786.55;107940;1274;72382;-78
2022/10/01 03:42:24;;;;;;;4.20;1.80;;;;;;;11.33;70.22;99788.65;107888;1274;72349;-77
2022/10/01 03:44:51;;;;;;;3.60;2.00;;;;;;;11.35;70.30;99793.02;107833;1274;62305;-80
2022/10/01 03:47:18;;;;;;;2.80;1.60;;;;;;;11.36;70.32;99788.79;107860;1274;62045;-78
2022/10/01 03:49:45;;;;;;;4.80;1.90;;;;;;;11.39;70.31;99774.16;108108;1274;74655;-79
2022/10/01 03:52:12;;;;;;;3.30;1.60;;;;;;;11.40;70.02;99769.13;107989;1274;72720;-78
2022/10/01 03:54:38;;;;;;;3.30;1.80;;;;;;;11.43;70.00;99764.35;107962;1274;59565;-78
2022/10/01 03:57:05;;;;;;;3.00;1.50;;;;;;;11.46;70.05;99752.71;107748;1273;62259;-77
2022/10/01 03:59:32;;;;;;;5.20;1.80;;;;;;;11.46;70.05;99754.23;107954;1273;59424;-78
2022/10/01 04:01:59;;;;;;;4.70;2.30;;;;;;;11.49;69.87;99754.55;107666;1273;75168;-81
2022/10/01 04:04:27;;;;;;;2.80;1.80;;;;;;;11.51;69.91;99750.75;107930;1274;72138;-78
2022/10/01 04:06:54;;;;;;;4.30;2.00;;;;;;;11.52;70.02;99756.98;107883;1274;73061;-78
2022/10/01 04:09:21;;;;;;;3.20;1.80;;;;;;;11.53;69.81;99748.55;107729;1274;62997;-77
2022/10/01 04:11:48;;;;;;;4.10;2.10;;;;;;;11.55;69.85;99745.23;108007;1274;60494;-76
2022/10/01 04:14:15;;;;;;;4.90;1.70;;;;;;;11.55;69.96;99741.93;108166;1274;75213;-78
2022/10/01 04:16:42;;;;;;;3.90;1.90;;;;;;;11.56;69.99;99739.11;107948;1274;72433;-78
2022/10/01 04:19:09;;;;;;;3.10;1.90;;;;;;;11.57;70.00;99730.31;107720;1274;73159;-78
2022/10/01 04:21:37;;;;;;;4.50;1.80;;;;;;;11.58;69.99;99735.17;108086;1272;62745;-77
2022/10/01 04:24:04;;;;;;;3.10;1.60;;;;;;;11.57;70.32;99727.63;107826;1274;60452;-77
2022/10/01 04:26:31;;;;;;;3.30;1.80;;;;;;;11.57;70.50;99722.71;108103;1274;75222;-78
2022/10/01 04:28:58;;;;;;;4.60;1.90;;;;;;;11.55;70.80;99722.88;108082;1274;71356;-78
2022/10/01 04:31:25;;;;;;;5.50;2.00;;;;;;;11.55;70.89;99715.32;107814;1274;72882;-77
2022/10/01 04:33:54;;;;;;;3.70;1.70;;;;;;;11.54;71.04;99713.15;107873;1274;62581;-78
2022/10/01 04:36:22;;;;;;;4.30;2.10;;;;;;;11.53;71.05;99706.05;107913;1273;60455;-77
2022/10/01 04:38:53;;;;;;;4.60;1.70;;;;;;;11.53;71.33;99702.30;107834;1274;75826;-77
2022/10/01 04:41:29;;;;;;;3.30;1.90;;;;;;;11.51;71.56;99700.30;107800;1274;71874;-78
2022/10/01 04:43:57;;;;;;;5.40;2.30;;;;;;;11.51;71.82;99695.85;107834;1274;73400;-78
2022/10/01 04:46:25;;;;;;;4.00;2.20;;;;;;;11.51;72.17;99696.45;107942;1273;62196;-77
2022/10/01 04:48:52;;;;;;;3.50;2.00;;;;;;;11.49;72.54;99691.14;107663;1274;60385;-77
2022/10/01 04:51:19;;;;;;;2.80;2.20;;;;;;;11.46;73.03;99692.27;107918;1274;74997;-77
2022/10/01 04:53:46;;;;;;;3.00;1.90;;;;;;;11.41;73.54;99688.98;107821;1273;72177;-77
2022/10/01 04:56:13;;;;;;;2.90;2.00;;;;;;;11.37;73.92;99682.23;107963;1274;73546;-77
2022/10/01 04:58:40;;;;;;;4.30;2.40;;;;;;;11.33;74.82;99679.19;107672;1273;61081;-78
2022/10/01 05:01:07;;;;;;;4.10;2.10;;;;;;;11.28;75.34;99679.95;107874;1274;61758;-77
2022/10/01 05:03:34;;;;;;;3.80;2.50;;;;;;;11.22;76.12;99674.57;107955;1274;73798;-78
2022/10/01 05:06:01;;;;;;;3.80;2.30;;;;;;;11.17;76.56;99666.73;107727;1275;72464;-77
2022/10/01 05:08:30;;;;;;;4.20;2.10;;;;;;;11.11;77.44;99665.20;107566;1274;73065;-78
2022/10/01 05:10:59;;;;;;;4.10;2.20;;;;;;;11.08;78.01;99659.37;107931;1274;61536;-77
2022/10/01 05:13:28;;;;;;;3.80;2.40;;;;;;;11.03;78.43;99652.71;107900;1274;60515;-77
2022/10/01 05:15:56;;;;;;;3.40;2.10;;;;;;;10.97;79.22;99645.84;107877;1274;76877;-77
2022/10/01 05:18:23;;;;;;;5.20;2.40;;;;;;;10.89;80.20;99637.73;107666;1274;71492;-77
2022/10/01 05:20:49;;;;;;;4.20;2.20;;;;;;;10.87;80.59;99636.27;108045;1274;73198;-77
2022/10/01 05:23:16;;;;;;;3.30;2.30;;;;;;;10.80;81.50;99636.19;107969;1274;61651;-77
2022/10/01 05:25:44;;;;;;;3.50;2.20;;;;;;;10.76;81.80;99635.38;107897;1274;60623;-78
2022/10/01 05:28:12;;;;;;;4.70;2.60;;;;;;;10.72;82.33;99632.60;107756;1274;74863;-77
2022/10/01 05:30:45;;;;;;;3.60;2.10;;;;;;;10.67;82.95;99623.40;107666;1274;74880;-78
2022/10/01 05:33:12;;;;;;;4.00;2.20;;;;;;;10.64;83.32;99621.98;108077;1274;74150;-77
2022/10/01 05:35:39;;;;;;;3.50;1.70;;;;;;;10.60;83.88;99624.86;108277;1274;62036;-77
2022/10/01 05:38:06;;;;;;;3.60;2.30;;;;;;;10.56;84.22;99624.33;108239;1274;60664;-77
2022/10/01 05:40:33;;;;;;;3.80;2.20;;;;;;;10.51;84.96;99618.77;108282;1274;75969;-76
2022/10/01 05:43:01;;;;;;;3.90;2.10;;;;;;;10.47;85.32;99619.34;108178;1274;72476;-77
2022/10/01 05:45:29;;;;;;;4.10;2.10;;;;;;;10.45;85.53;99622.23;108242;1274;73768;-77
2022/10/01 05:47:58;;;;;;;4.60;2.70;;;;;;;10.41;86.04;99617.48;108167;1274;61959;-77
2022/10/01 05:50:26;;;;;;;5.30;2.50;;;;;;;10.36;86.99;99620.20;108113;1274;61356;-77
2022/10/01 05:52:53;;;;;;;4.60;2.40;;;;;;;10.32;87.49;99614.94;108245;1274;76335;-77
2022/10/01 05:55:21;;;;;;;5.10;2.50;;;;;;;10.27;88.18;99622.17;108287;1274;72260;-78
2022/10/01 05:57:55;;;;;;;3.60;2.50;;;;;;;10.21;89.00;99626.28;108189;1274;72623;-77
2022/10/01 06:00:22;;;;;;;3.80;2.70;;;;;;;10.16;89.67;99626.33;108277;1274;60981;-78
2022/10/01 06:02:51;;;;;;;6.50;3.00;;;;;;;10.12;90.16;99621.68;108301;1274;62148;-77
2022/10/01 06:05:18;;;;;;;3.70;2.60;;;;;;;10.08;91.11;99615.05;108206;1274;75198;-75
2022/10/01 06:07:45;;;;;;;4.90;3.00;;;;;;;10.01;91.98;99612.14;108257;1274;71059;-75
2022/10/01 06:10:13;;;;;;;5.20;2.80;;;;;;;9.97;92.60;99605.45;108272;1274;71281;-75
2022/10/01 06:12:39;;;;;;;4.80;3.00;;;;;;;9.96;92.91;99598.42;108100;1274;60799;-75
2022/10/01 06:15:07;;;;;;;4.50;2.70;;;;;;;9.92;93.38;99590.23;108231;1274;60935;-75
2022/10/01 06:17:34;;;;;;;4.50;2.90;;;;;;;9.86;94.44;99583.06;108269;1274;74142;-75
2022/10/01 06:20:01;;;;;;;6.10;3.30;;;;;;;9.84;94.76;99581.42;108126;1274;71305;-77
2022/10/01 06:22:28;;;;;;;4.40;3.20;;;;;;;9.82;95.21;99580.77;107874;1274;74223;-77
2022/10/01 06:24:55;;;;;;;6.10;3.10;;;;;;;9.78;95.86;99581.85;108236;1274;60683;-77
2022/10/01 06:27:22;;;;;;;5.30;3.10;;;;;;;9.77;96.41;99568.27;108231;1274;60712;-77
2022/10/01 06:29:50;;;;;;;3.90;2.80;;;;;;;9.76;96.78;99569.95;108182;1274;75240;-78
2022/10/01 06:32:34;;;;;;;4.50;3.00;;;;;;;9.77;96.83;99564.59;108144;1274;74059;-78
2022/10/01 06:35:04;;;;;;;5.40;3.30;;;;;;;9.77;97.07;99559.63;108192;1274;73045;-78
2022/10/01 06:37:36;;;;;;;5.00;2.90;;;;;;;9.78;96.79;99556.64;108218;1274;62714;-78
2022/10/01 06:40:03;;;;;;;4.90;3.20;;;;;;;9.79;97.03;99555.45;108326;1274;61073;-78
2022/10/01 06:42:29;;;;;;;4.10;2.80;;;;;;;9.77;97.46;99552.34;108268;1274;75015;-79
2022/10/01 06:44:56;;;;;;;3.40;2.80;;;;;;;9.77;97.71;99547.04;107822;1274;71290;-78
2022/10/01 06:47:23;;;;;;;6.20;2.90;;;;;;;9.77;97.93;99539.30;108304;1273;72697;-77
2022/10/01 06:49:49;;;;;;;4.60;2.90;;;;;;;9.78;98.19;99524.18;108176;1274;61582;-77
2022/10/01 06:55:02;;;;;;;5.70;3.20;;;;;;;9.78;98.82;99527.41;108206;1274;75471;-80
2022/10/01 06:57:29;;;;;;;4.70;2.70;;;;;;;9.77;99.28;99525.17;108285;1274;72266;-78
2022/10/01 06:59:56;;;;;;;4.30;3.00;;;;;;;9.76;99.57;99517.88;108267;1274;74178;-78
2022/10/01 07:02:31;;;;;;;4.40;2.60;;;;;;;9.76;99.76;99518.72;108301;1274;61063;-79
2022/10/01 07:04:58;;;;;;;3.70;2.80;;;;;;;9.78;99.88;99509.89;108230;1274;60376;-78
2022/10/01 07:07:34;;;;;;;4.90;2.80;;;;;;;9.78;99.97;99506.66;108179;1274;74638;-78
2022/10/01 07:10:01;;;;;;;3.90;2.60;;;;;;;9.80;99.92;99499.05;108205;1274;72725;-78
2022/10/01 07:12:28;;;;;;;4.50;2.60;;;;;;;9.81;99.99;99501.71;108335;1274;72772;-80
2022/10/01 07:14:55;;;;;;;3.40;2.60;;;;;;;9.84;100.00;99498.41;108350;1274;62101;-78
2022/10/01 07:17:22;;;;;;;4.90;2.80;;;;;;;9.85;100.00;99502.11;108188;1274;62977;-78
2022/10/01 07:19:49;;;;;;;3.80;2.40;;;;;;;9.86;100.00;99499.23;108269;1274;74679;-79
2022/10/01 07:22:18;;;;;;;4.10;2.60;;;;;;;9.88;100.00;99493.86;108346;1273;71048;-78
2022/10/01 07:24:45;;;;;;;4.50;2.50;;;;;;;9.89;100.00;99496.52;108235;1274;74166;-78
2022/10/01 07:27:13;;;;;;;4.80;2.50;;;;;;;9.91;99.91;99497.86;108184;1273;62220;-78
2022/10/01 07:29:40;;;;;;;4.50;2.70;;;;;;;9.90;99.90;99500.55;108259;1274;60309;-79
2022/10/01 07:32:09;;;;;;;3.70;2.20;;;;;;;9.92;99.97;99498.56;108186;1274;76154;-78
2022/10/01 07:34:41;;;;;;;3.50;2.50;;;;;;;9.92;100.00;99501.34;108325;1274;71216;-78
2022/10/01 07:37:08;;;;;;;3.30;2.50;;;;;;;9.93;100.00;99500.14;108257;1273;71494;-72
2022/10/01 07:39:35;;;;;;;4.40;2.50;;;;;;;9.95;100.00;99502.11;108222;1274;61796;-73
2022/10/01 07:42:03;;;;;;;3.20;2.20;;;;;;;9.95;100.00;99505.73;108281;1274;60376;-73
2022/10/01 07:44:29;;;;;;;3.30;2.30;;;;;;;9.93;100.00;99502.52;108245;1274;74859;-73
2022/10/01 07:46:56;;;;;;;4.40;2.00;;;;;;;9.93;100.00;99500.23;108256;1274;72446;-73
2022/10/01 07:49:24;;;;;;;4.00;2.20;;;;;;;9.93;100.00;99496.15;108178;1274;73188;-72
2022/10/01 07:51:53;;;;;;;3.80;2.10;;;;;;;9.93;100.00;99497.54;108244;1274;63298;-72
2022/10/01 07:54:20;;;;;;;4.00;2.20;;;;;;;9.93;100.00;99500.35;108237;1274;60198;-72
2022/10/01 07:56:50;;;;;;;2.90;2.00;;;;;;;9.93;100.00;99496.89;108230;1274;75040;-72
2022/10/01 07:59:18;;;;;;;3.60;2.20;;;;;;;9.95;100.00;99500.86;108165;1274;71967;-73
2022/10/01 08:01:48;;;;;;;2.80;2.00;;;;;;;10.00;100.00;99497.69;108265;1274;73024;-73
2022/10/01 08:07:00;;;;;;;4.40;2.10;;;;;;;10.06;100.00;99496.15;108247;1274;60314;-73
2022/10/01 08:09:27;;;;;;;3.50;2.40;;;;;;;10.09;100.00;99494.52;108215;1274;76039;-72
2022/10/01 08:11:54;;;;;;;5.60;2.90;;;;;;;10.11;100.00;99491.67;108302;1273;71330;-72
2022/10/01 08:14:20;;;;;;;4.50;2.60;;;;;;;10.15;100.00;99496.92;108257;1273;73024;-72
2022/10/01 08:16:47;;;;;;;5.10;2.60;;;;;;;10.17;100.00;99500.98;108249;1274;61749;-72
2022/10/01 08:19:14;;;;;;;2.90;2.20;;;;;;;10.19;100.00;99497.07;108259;1274;61876;-73
2022/10/01 08:21:41;;;;;;;2.80;2.30;;;;;;;10.20;100.00;99499.96;108213;1273;76794;-72
2022/10/01 08:24:08;;;;;;;4.50;2.40;;;;;;;10.23;100.00;99500.91;108219;1274;72811;-72
2022/10/01 08:26:35;;;;;;;5.40;2.60;;;;;;;10.22;100.00;99498.01;108151;1276;72981;-72
2022/10/01 08:29:02;;;;;;;3.60;2.30;;;;;;;10.26;100.00;99499.97;108130;1274;62301;-72
2022/10/01 08:31:29;;;;;;;3.80;2.50;;;;;;;10.29;100.00;99502.92;108303;1274;60545;-72
2022/10/01 08:33:56;;;;;;;5.80;3.60;;;;;;;10.32;100.00;99501.48;108324;1274;76510;-72
2022/10/01 08:36:23;;;;;;;4.30;2.90;;;;;;;10.36;100.00;99499.65;108194;1273;71799;-72
2022/10/01 08:38:49;;;;;;;2.90;1.80;;;;;;;10.40;100.00;99500.91;108087;1274;75260;-72
2022/10/01 08:41:48;;;;;;;2.50;1.70;;;;;;;10.44;99.98;99509.16;108247;1274;59332;-73
2022/10/01 08:44:22;;;;;;;2.20;1.40;;;;;;;10.49;99.84;99496.63;108286;1274;60688;-73
2022/10/01 08:46:50;;;;;;;1.60;1.00;;;;;;;10.52;99.73;99502.02;108248;1274;74679;-73
2022/10/01 08:49:33;;;;;;;2.50;1.60;;;;;;;10.56;99.30;99495.41;108272;1274;72233;-73
2022/10/01 08:52:26;;;;;;;3.40;1.40;;;;;;;10.60;99.09;99500.02;108294;1274;73149;-73
2022/10/01 08:54:57;;;;;;;2.50;1.20;;;;;;;10.68;98.89;99498.45;108234;1274;62888;-73
2022/10/01 08:57:38;;;;;;;2.40;1.30;;;;;;;10.74;98.76;99502.74;108243;1274;60670;-73
2022/10/01 09:00:18;;;;;;;1.60;1.10;;;;;;;10.82;98.64;99505.96;108269;1274;74394;-73
2022/10/01 09:02:47;;;;;;;1.80;1.20;;;;;;;10.86;98.50;99509.02;108133;1274;72348;-73
2022/10/01 09:05:35;;;;;;;2.40;1.30;;;;;;;10.87;98.46;99513.52;108110;1274;74520;-73
2022/10/01 09:08:43;;;;;;;1.90;1.10;;;;;;;10.86;98.48;99508.33;108277;1274;62049;-72
2022/10/01 09:11:27;;;;;;;1.90;1.30;;;;;;;10.86;99.05;99511.60;107845;1274;60047;-72
2022/10/01 09:14:35;;;;;;;2.40;1.10;;;;;;;10.85;99.03;99520.13;108266;1274;75962;-72
2022/10/01 09:17:32;;;;;;;3.20;1.50;;;;;;;10.84;99.39;99518.61;108263;1274;72434;-72
2022/10/01 09:20:24;;;;;;;2.70;1.20;;;;;;;10.84;99.36;99518.94;108191;1274;73282;-72
2022/10/01 09:23:16;;;;;;;2.50;1.50;;;;;;;10.87;99.70;99515.83;107786;1274;62261;-72
2022/10/01 09:25:48;;;;;;;2.60;1.20;;;;;;;10.89;99.52;99521.19;107524;1274;64613;-73
2022/10/01 09:28:22;;;;;;;1.80;0.90;;;;;;;10.96;99.61;99520.23;108076;1274;74987;-72
2022/10/01 09:30:54;;;;;;;1.80;1.00;;;;;;;11.03;99.28;99521.98;107826;1276;72487;-72
2022/10/01 09:33:33;;;;;;;1.70;1.10;;;;;;;11.09;98.88;99525.56;108054;1274;73717;-72
2022/10/01 09:36:22;;;;;;;1.90;1.50;;;;;;;11.16;98.74;99528.20;107905;1274;62061;-72
2022/10/01 09:39:03;;;;;;;2.60;1.10;;;;;;;11.21;98.07;99530.48;108099;1274;61625;-72
2022/10/01 09:41:30;;;;;;;1.70;0.90;;;;;;;11.29;97.84;99527.11;108091;1274;74839;-72
2022/10/01 09:43:57;;;;;;;1.80;0.80;;;;;;;11.36;97.59;99529.14;107811;1274;71644;-73
2022/10/01 09:46:25;;;;;;;1.20;0.70;;;;;;;11.44;96.49;99519.92;107854;1274;73258;-73
2022/10/01 09:49:09;;;;;;;2.30;0.60;;;;;;;11.60;96.02;99515.98;107926;1274;62913;-73
2022/10/01 09:51:44;;;;;;;1.30;0.60;;;;;;;11.74;95.34;99514.22;108026;1274;60695;-72
2022/10/01 09:54:15;;;;;;;1.10;0.60;;;;;;;11.91;94.90;99510.75;107880;1274;75754;-73
2022/10/01 09:57:18;;;;;;;1.10;0.60;;;;;;;12.04;94.35;99508.52;107863;1274;71578;-72
2022/10/01 10:00:03;;;;;;;2.40;0.60;;;;;;;12.26;93.79;99517.14;107674;1274;72863;-72
2022/10/01 10:02:34;;;;;;;1.40;0.70;;;;;;;12.46;93.10;99512.95;107826;1275;62182;-72
2022/10/01 10:05:04;;;;;;;1.00;0.50;;;;;;;12.56;91.86;99519.42;108054;1273;59601;-72
2022/10/01 10:07:33;;;;;;;1.10;0.50;;;;;;;12.65;91.28;99528.67;107929;1274;74914;-73
2022/10/01 10:10:18;;;;;;;1.70;0.70;;;;;;;12.73;90.51;99525.30;107804;1274;72091;-72
2022/10/01 10:13:03;;;;;;;1.20;0.70;;;;;;;12.88;90.50;99522.96;108062;1274;73807;-73
2022/10/01 10:15:31;;;;;;;1.30;0.60;;;;;;;13.06;89.93;99524.05;107576;1274;63541;-72
2022/10/01 10:18:10;;;;;;;1.00;0.50;;;;;;;13.24;88.59;99530.12;108202;1274;61595;-72
2022/10/01 10:20:45;;;;;;;2.10;0.70;;;;;;;13.35;88.26;99529.08;108094;1274;75042;-73
2022/10/01 10:23:30;;;;;;;2.00;1.00;;;;;;;13.31;88.06;99531.86;108094;1274;71624;-72
2022/10/01 10:26:00;;;;;;;1.70;0.70;;;;;;;13.25;88.02;99543.54;108007;1274;71745;-72
2022/10/01 10:28:28;;;;;;;2.30;1.20;;;;;;;13.21;88.54;99535.34;107941;1274;63086;-73
2022/10/01 10:30:56;;;;;;;2.10;1.10;;;;;;;13.24;89.17;99536.13;108220;1274;62350;-72
2022/10/01 10:33:25;;;;;;;2.00;1.00;;;;;;;13.31;88.47;99539.69;108273;1273;75656;-72
2022/10/01 10:36:04;;;;;;;1.40;0.70;;;;;;;13.45;87.85;99546.10;107823;1274;72514;-72
2022/10/01 10:38:34;;;;;;;2.20;0.70;;;;;;;13.69;87.15;99546.89;107740;1274;73720;-72
2022/10/01 10:41:02;;;;;;;2.30;0.70;;;;;;;13.82;86.28;99548.23;107741;1274;62191;-73
2022/10/01 10:43:36;;;;;;;1.10;0.70;;;;;;;13.93;85.81;99554.18;108290;1274;60466;-73
2022/10/01 10:46:08;;;;;;;1.80;0.80;;;;;;;14.05;85.15;99559.20;108249;1273;75942;-72
2022/10/01 10:48:42;;;;;;;3.70;1.30;;;;;;;14.11;84.93;99558.50;108064;1274;72341;-72
2022/10/01 10:51:09;;;;;;;2.40;1.40;;;;;;;14.20;85.42;99559.89;108106;1274;74218;-72
2022/10/01 10:53:44;;;;;;;3.20;1.30;;;;;;;14.24;84.57;99568.13;108065;1274;62147;-72
2022/10/01 10:56:23;;;;;;;1.70;0.80;;;;;;;14.24;83.89;99563.85;108040;1274;60447;-73
2022/10/01 10:58:52;;;;;;;2.20;1.00;;;;;;;14.23;84.10;99571.48;107543;1274;74031;-73
2022/10/01 11:01:27;;;;;;;2.40;1.70;;;;;;;14.21;84.72;99571.94;107639;1274;71081;-72
2022/10/01 11:03:59;;;;;;;2.20;1.40;;;;;;;14.16;84.85;99569.84;107432;1274;73940;-72
2022/10/01 11:06:27;;;;;;;3.70;1.50;;;;;;;14.04;84.60;99575.70;108050;1274;60891;-72
2022/10/01 11:09:00;;;;;;;3.30;2.00;;;;;;;14.02;85.16;99572.33;107741;1274;60368;-72
2022/10/01 11:11:54;;;;;;;1.80;1.20;;;;;;;14.00;85.94;99567.38;107712;1274;75880;-72
2022/10/01 11:14:45;;;;;;;3.20;2.20;;;;;;;14.07;85.83;99565.91;108010;1273;72721;-71
2022/10/01 11:17:41;;;;;;;3.30;1.60;;;;;;;14.11;86.29;99580.70;107712;1274;72871;-71
2022/10/01 11:20:36;;;;;;;2.70;2.00;;;;;;;14.09;86.02;99589.75;107925;1274;62086;-72
2022/10/01 11:23:15;;;;;;;3.00;1.70;;;;;;;14.18;86.13;99583.77;108008;1274;60257;-71
2022/10/01 11:25:57;;;;;;;2.50;1.70;;;;;;;14.29;84.99;99582.77;107651;1273;75884;-72
2022/10/01 11:28:43;;;;;;;1.90;1.40;;;;;;;14.43;84.32;99583.99;107843;1272;71575;-73
2022/10/01 11:31:15;;;;;;;2.50;1.60;;;;;;;14.55;83.49;99583.39;107861;1274;74018;-73
2022/10/01 11:33:56;;;;;;;2.60;1.30;;;;;;;14.80;83.86;99572.55;107757;1274;62341;-72
2022/10/01 11:36:40;;;;;;;2.80;1.20;;;;;;;15.00;81.59;99580.13;107669;1274;59785;-72
2022/10/01 11:39:15;;;;;;;3.60;1.30;;;;;;;15.12;80.35;99583.06;107465;1274;75447;-73
2022/10/01 11:41:51;;;;;;;2.20;1.40;;;;;;;15.20;80.74;99580.00;107804;1274;72987;-73
2022/10/01 11:44:25;;;;;;;2.40;1.40;;;;;;;15.28;81.26;99585.95;108087;1274;73853;-72
2022/10/01 11:46:58;;;;;;;2.40;1.80;;;;;;;15.29;80.28;99588.97;107311;1274;61870;-74
2022/10/01 11:49:54;;;;;;;2.50;1.60;;;;;;;15.25;80.49;99591.23;108016;1274;60681;-72
2022/10/01 11:52:39;;;;;;;4.80;2.30;;;;;;;15.23;81.05;99586.26;107613;1275;75424;-73